sensor_id;sensor_type;location;lat;lon;timestamp;P1;durP1;ratioP1;P2;durP2;ratioP2
6850;SDS011;3464;42.728;23.296;2022-09-17T00:00:14;18.83;;;6.60;;
6850;SDS011;3464;42.728;23.296;2022-09-17T00:02:40;15.10;;;6.20;;
6850;SDS011;3464;42.728;23.296;2022-09-17T00:05:07;18.43;;;6.87;;
6850;SDS011;3464;42.728;23.296;2022-09-17T00:07:34;16.87;;;6.33;;
6850;SDS011;3464;42.728;23.296;2022-09-17T00:10:00;17.77;;;6.57;;
6850;SDS011;3464;42.728;23.296;2022-09-17T00:12:27;17.83;;;6.10;;
6850;SDS011;3464;42.728;23.296;2022-09-17T00:14:54;17.87;;;6.33;;
6850;SDS011;3464;42.728;23.296;2022-09-17T00:17:20;20.20;;;6.40;;
6850;SDS011;3464;42.728;23.296;2022-09-17T00:19:47;13.93;;;6.40;;
6850;SDS011;3464;42.728;23.296;2022-09-17T00:22:13;13.50;;;6.30;;
6850;SDS011;3464;42.728;23.296;2022-09-17T00:24:40;16.57;;;6.60;;
6850;SDS011;3464;42.728;23.296;2022-09-17T00:27:06;13.77;;;6.23;;
6850;SDS011;3464;42.728;23.296;2022-09-17T00:29:34;16.90;;;6.37;;
6850;SDS011;3464;42.728;23.296;2022-09-17T00:32:01;20.87;;;7.03;;
6850;SDS011;3464;42.728;23.296;2022-09-17T00:34:27;17.83;;;6.37;;
6850;SDS011;3464;42.728;23.296;2022-09-17T00:36:55;14.60;;;5.90;;
6850;SDS011;3464;42.728;23.296;2022-09-17T00:39:22;17.30;;;6.13;;
6850;SDS011;3464;42.728;23.296;2022-09-17T00:41:48;20.10;;;5.70;;
6850;SDS011;3464;42.728;23.296;2022-09-17T00:46:53;18.67;;;5.80;;
6850;SDS011;3464;42.728;23.296;2022-09-17T00:49:22;15.83;;;5.53;;
6850;SDS011;3464;42.728;23.296;2022-09-17T00:51:50;12.33;;;5.57;;
6850;SDS011;3464;42.728;23.296;2022-09-17T00:54:14;17.97;;;5.90;;
6850;SDS011;3464;42.728;23.296;2022-09-17T00:56:41;16.00;;;5.80;;
6850;SDS011;3464;42.728;23.296;2022-09-17T00:59:08;16.63;;;5.17;;
6850;SDS011;3464;42.728;23.296;2022-09-17T01:01:34;12.07;;;4.90;;
6850;SDS011;3464;42.728;23.296;2022-09-17T01:04:01;16.10;;;5.53;;
6850;SDS011;3464;42.728;23.296;2022-09-17T01:06:36;17.33;;;5.50;;
6850;SDS011;3464;42.728;23.296;2022-09-17T01:09:04;17.90;;;6.20;;
6850;SDS011;3464;42.728;23.296;2022-09-17T01:11:32;12.40;;;5.10;;
6850;SDS011;3464;42.728;23.296;2022-09-17T01:14:09;15.63;;;5.77;;
6850;SDS011;3464;42.728;23.296;2022-09-17T01:16:35;16.53;;;6.30;;
6850;SDS011;3464;42.728;23.296;2022-09-17T01:19:15;16.60;;;6.37;;
6850;SDS011;3464;42.728;23.296;2022-09-17T01:22:09;17.83;;;5.80;;
6850;SDS011;3464;42.728;23.296;2022-09-17T01:27:58;18.73;;;6.63;;
6850;SDS011;3464;42.728;23.296;2022-09-17T01:30:37;13.73;;;6.17;;
6850;SDS011;3464;42.728;23.296;2022-09-17T01:33:22;17.40;;;5.63;;
6850;SDS011;3464;42.728;23.296;2022-09-17T01:36:31;14.43;;;6.40;;
6850;SDS011;3464;42.728;23.296;2022-09-17T01:38:44;13.63;;;5.50;;
6850;SDS011;3464;42.728;23.296;2022-09-17T01:41:15;15.23;;;5.60;;
6850;SDS011;3464;42.728;23.296;2022-09-17T01:43:58;19.00;;;6.07;;
6850;SDS011;3464;42.728;23.296;2022-09-17T01:46:29;16.93;;;5.93;;
6850;SDS011;3464;42.728;23.296;2022-09-17T01:48:57;13.87;;;6.00;;
6850;SDS011;3464;42.728;23.296;2022-09-17T01:51:24;14.53;;;5.93;;
6850;SDS011;3464;42.728;23.296;2022-09-17T01:54:25;16.10;;;6.13;;
6850;SDS011;3464;42.728;23.296;2022-09-17T01:56:35;13.90;;;6.00;;
6850;SDS011;3464;42.728;23.296;2022-09-17T01:59:06;18.90;;;6.90;;
6850;SDS011;3464;42.728;23.296;2022-09-17T02:01:31;16.40;;;6.33;;
6850;SDS011;3464;42.728;23.296;2022-09-17T02:04:02;18.67;;;6.60;;
6850;SDS011;3464;42.728;23.296;2022-09-17T02:06:29;15.33;;;6.20;;
6850;SDS011;3464;42.728;23.296;2022-09-17T02:08:58;19.37;;;6.80;;
6850;SDS011;3464;42.728;23.296;2022-09-17T02:11:25;14.23;;;5.87;;
6850;SDS011;3464;42.728;23.296;2022-09-17T02:16:25;16.60;;;6.80;;
6850;SDS011;3464;42.728;23.296;2022-09-17T02:18:55;17.20;;;6.20;;
6850;SDS011;3464;42.728;23.296;2022-09-17T02:21:29;19.00;;;6.90;;
6850;SDS011;3464;42.728;23.296;2022-09-17T02:26:30;20.37;;;7.40;;
6850;SDS011;3464;42.728;23.296;2022-09-17T02:28:59;14.37;;;6.87;;
6850;SDS011;3464;42.728;23.296;2022-09-17T02:31:24;18.23;;;7.37;;
6850;SDS011;3464;42.728;23.296;2022-09-17T02:33:51;15.40;;;6.73;;
6850;SDS011;3464;42.728;23.296;2022-09-17T02:36:17;17.57;;;7.13;;
6850;SDS011;3464;42.728;23.296;2022-09-17T02:38:44;20.40;;;7.70;;
6850;SDS011;3464;42.728;23.296;2022-09-17T02:41:13;18.97;;;7.33;;
6850;SDS011;3464;42.728;23.296;2022-09-17T02:44:01;20.67;;;7.00;;
6850;SDS011;3464;42.728;23.296;2022-09-17T02:49:52;17.33;;;6.47;;
6850;SDS011;3464;42.728;23.296;2022-09-17T02:53:08;18.37;;;6.20;;
6850;SDS011;3464;42.728;23.296;2022-09-17T02:55:22;14.43;;;6.40;;
6850;SDS011;3464;42.728;23.296;2022-09-17T02:57:54;20.03;;;5.90;;
6850;SDS011;3464;42.728;23.296;2022-09-17T03:00:20;16.33;;;5.73;;
6850;SDS011;3464;42.728;23.296;2022-09-17T03:02:49;16.30;;;5.83;;
6850;SDS011;3464;42.728;23.296;2022-09-17T03:05:17;15.30;;;6.17;;
6850;SDS011;3464;42.728;23.296;2022-09-17T03:07:43;11.20;;;5.23;;
6850;SDS011;3464;42.728;23.296;2022-09-17T03:10:09;14.73;;;5.57;;
6850;SDS011;3464;42.728;23.296;2022-09-17T03:12:36;14.93;;;5.70;;
6850;SDS011;3464;42.728;23.296;2022-09-17T03:15:04;14.77;;;5.80;;
6850;SDS011;3464;42.728;23.296;2022-09-17T03:17:31;18.50;;;6.07;;
6850;SDS011;3464;42.728;23.296;2022-09-17T03:19:57;16.03;;;4.97;;
6850;SDS011;3464;42.728;23.296;2022-09-17T03:22:24;13.90;;;5.50;;
6850;SDS011;3464;42.728;23.296;2022-09-17T03:24:50;15.57;;;5.73;;
6850;SDS011;3464;42.728;23.296;2022-09-17T03:27:17;14.30;;;6.00;;
6850;SDS011;3464;42.728;23.296;2022-09-17T03:29:43;19.80;;;5.80;;
6850;SDS011;3464;42.728;23.296;2022-09-17T03:32:10;16.93;;;5.37;;
6850;SDS011;3464;42.728;23.296;2022-09-17T03:34:36;14.70;;;5.90;;
6850;SDS011;3464;42.728;23.296;2022-09-17T03:37:04;16.37;;;5.57;;
6850;SDS011;3464;42.728;23.296;2022-09-17T03:39:31;13.97;;;6.07;;
6850;SDS011;3464;42.728;23.296;2022-09-17T03:41:57;14.40;;;5.73;;
6850;SDS011;3464;42.728;23.296;2022-09-17T03:44:24;13.27;;;5.63;;
6850;SDS011;3464;42.728;23.296;2022-09-17T03:46:50;18.90;;;5.73;;
6850;SDS011;3464;42.728;23.296;2022-09-17T03:49:17;15.10;;;5.50;;
6850;SDS011;3464;42.728;23.296;2022-09-17T03:51:43;18.37;;;6.03;;
6850;SDS011;3464;42.728;23.296;2022-09-17T03:54:10;19.87;;;5.27;;
6850;SDS011;3464;42.728;23.296;2022-09-17T03:56:36;18.80;;;6.33;;
6850;SDS011;3464;42.728;23.296;2022-09-17T03:59:03;16.00;;;5.70;;
6850;SDS011;3464;42.728;23.296;2022-09-17T04:01:29;17.90;;;6.20;;
6850;SDS011;3464;42.728;23.296;2022-09-17T04:03:56;15.83;;;6.00;;
6850;SDS011;3464;42.728;23.296;2022-09-17T04:06:23;14.50;;;5.93;;
6850;SDS011;3464;42.728;23.296;2022-09-17T04:08:49;16.33;;;6.20;;
6850;SDS011;3464;42.728;23.296;2022-09-17T04:11:17;15.70;;;6.33;;
6850;SDS011;3464;42.728;23.296;2022-09-17T04:13:44;14.00;;;5.40;;
6850;SDS011;3464;42.728;23.296;2022-09-17T04:16:11;14.87;;;5.80;;
6850;SDS011;3464;42.728;23.296;2022-09-17T04:18:38;13.67;;;5.60;;
6850;SDS011;3464;42.728;23.296;2022-09-17T04:21:05;16.60;;;6.23;;
6850;SDS011;3464;42.728;23.296;2022-09-17T04:23:31;15.83;;;6.00;;
6850;SDS011;3464;42.728;23.296;2022-09-17T04:25:58;16.87;;;6.63;;
6850;SDS011;3464;42.728;23.296;2022-09-17T04:28:24;19.93;;;5.60;;
6850;SDS011;3464;42.728;23.296;2022-09-17T04:30:51;18.53;;;5.93;;
6850;SDS011;3464;42.728;23.296;2022-09-17T04:33:17;17.37;;;6.07;;
6850;SDS011;3464;42.728;23.296;2022-09-17T04:35:44;40.70;;;9.50;;
6850;SDS011;3464;42.728;23.296;2022-09-17T04:38:10;16.57;;;5.83;;
6850;SDS011;3464;42.728;23.296;2022-09-17T04:40:38;21.20;;;6.70;;
6850;SDS011;3464;42.728;23.296;2022-09-17T04:43:04;41.67;;;9.27;;
6850;SDS011;3464;42.728;23.296;2022-09-17T04:45:32;14.77;;;4.93;;
6850;SDS011;3464;42.728;23.296;2022-09-17T04:47:59;16.53;;;5.50;;
6850;SDS011;3464;42.728;23.296;2022-09-17T04:50:26;15.77;;;4.53;;
6850;SDS011;3464;42.728;23.296;2022-09-17T04:52:53;22.10;;;4.50;;
6850;SDS011;3464;42.728;23.296;2022-09-17T04:55:20;15.47;;;4.27;;
6850;SDS011;3464;42.728;23.296;2022-09-17T04:57:48;15.90;;;4.00;;
6850;SDS011;3464;42.728;23.296;2022-09-17T05:00:14;15.20;;;3.73;;
6850;SDS011;3464;42.728;23.296;2022-09-17T05:02:43;16.90;;;4.00;;
6850;SDS011;3464;42.728;23.296;2022-09-17T05:05:09;17.60;;;3.57;;
6850;SDS011;3464;42.728;23.296;2022-09-17T05:07:38;15.10;;;3.57;;
6850;SDS011;3464;42.728;23.296;2022-09-17T05:10:06;14.37;;;3.57;;
6850;SDS011;3464;42.728;23.296;2022-09-17T05:12:34;12.97;;;3.40;;
6850;SDS011;3464;42.728;23.296;2022-09-17T05:15:01;15.53;;;4.57;;
6850;SDS011;3464;42.728;23.296;2022-09-17T05:17:27;19.03;;;3.60;;
6850;SDS011;3464;42.728;23.296;2022-09-17T05:19:55;13.30;;;4.00;;
6850;SDS011;3464;42.728;23.296;2022-09-17T05:22:22;16.53;;;4.13;;
6850;SDS011;3464;42.728;23.296;2022-09-17T05:24:51;20.43;;;4.97;;
6850;SDS011;3464;42.728;23.296;2022-09-17T05:27:21;20.03;;;4.30;;
6850;SDS011;3464;42.728;23.296;2022-09-17T05:29:49;13.57;;;4.17;;
6850;SDS011;3464;42.728;23.296;2022-09-17T05:32:16;16.50;;;3.60;;
6850;SDS011;3464;42.728;23.296;2022-09-17T05:34:45;16.57;;;3.73;;
6850;SDS011;3464;42.728;23.296;2022-09-17T05:37:13;13.50;;;4.00;;
6850;SDS011;3464;42.728;23.296;2022-09-17T05:39:46;15.53;;;3.83;;
6850;SDS011;3464;42.728;23.296;2022-09-17T05:42:14;14.70;;;4.30;;
6850;SDS011;3464;42.728;23.296;2022-09-17T05:44:41;16.73;;;4.50;;
6850;SDS011;3464;42.728;23.296;2022-09-17T05:47:08;10.70;;;3.90;;
6850;SDS011;3464;42.728;23.296;2022-09-17T05:49:34;13.87;;;4.23;;
6850;SDS011;3464;42.728;23.296;2022-09-17T05:52:02;15.53;;;4.10;;
6850;SDS011;3464;42.728;23.296;2022-09-17T05:54:30;14.40;;;4.53;;
6850;SDS011;3464;42.728;23.296;2022-09-17T05:56:58;14.77;;;4.20;;
6850;SDS011;3464;42.728;23.296;2022-09-17T05:59:26;16.40;;;4.57;;
6850;SDS011;3464;42.728;23.296;2022-09-17T06:01:54;15.57;;;4.73;;
6850;SDS011;3464;42.728;23.296;2022-09-17T06:04:23;18.20;;;4.13;;
6850;SDS011;3464;42.728;23.296;2022-09-17T06:06:50;18.00;;;4.40;;
6850;SDS011;3464;42.728;23.296;2022-09-17T06:09:17;18.43;;;5.50;;
6850;SDS011;3464;42.728;23.296;2022-09-17T06:11:44;18.63;;;4.57;;
6850;SDS011;3464;42.728;23.296;2022-09-17T06:14:12;18.60;;;4.73;;
6850;SDS011;3464;42.728;23.296;2022-09-17T06:16:39;18.20;;;5.23;;
6850;SDS011;3464;42.728;23.296;2022-09-17T06:19:05;14.43;;;4.10;;
6850;SDS011;3464;42.728;23.296;2022-09-17T06:21:32;17.70;;;4.70;;
6850;SDS011;3464;42.728;23.296;2022-09-17T06:23:59;12.47;;;3.90;;
6850;SDS011;3464;42.728;23.296;2022-09-17T06:26:25;14.27;;;4.07;;
6850;SDS011;3464;42.728;23.296;2022-09-17T06:28:51;13.53;;;4.23;;
6850;SDS011;3464;42.728;23.296;2022-09-17T06:31:18;22.80;;;5.67;;
6850;SDS011;3464;42.728;23.296;2022-09-17T06:33:47;16.90;;;5.10;;
6850;SDS011;3464;42.728;23.296;2022-09-17T06:36:25;15.50;;;4.07;;
6850;SDS011;3464;42.728;23.296;2022-09-17T06:38:51;15.63;;;3.60;;
6850;SDS011;3464;42.728;23.296;2022-09-17T06:41:18;14.60;;;4.17;;
6850;SDS011;3464;42.728;23.296;2022-09-17T06:43:44;15.83;;;3.70;;
6850;SDS011;3464;42.728;23.296;2022-09-17T06:46:11;12.00;;;3.10;;
6850;SDS011;3464;42.728;23.296;2022-09-17T06:48:38;12.57;;;3.83;;
6850;SDS011;3464;42.728;23.296;2022-09-17T06:51:05;13.60;;;3.80;;
6850;SDS011;3464;42.728;23.296;2022-09-17T06:53:31;17.03;;;5.00;;
6850;SDS011;3464;42.728;23.296;2022-09-17T06:55:58;16.20;;;3.73;;
6850;SDS011;3464;42.728;23.296;2022-09-17T06:58:24;17.90;;;3.90;;
6850;SDS011;3464;42.728;23.296;2022-09-17T07:00:51;14.00;;;3.93;;
6850;SDS011;3464;42.728;23.296;2022-09-17T07:03:17;14.33;;;3.83;;
6850;SDS011;3464;42.728;23.296;2022-09-17T07:05:44;19.57;;;4.87;;
6850;SDS011;3464;42.728;23.296;2022-09-17T07:08:10;16.40;;;5.17;;
6850;SDS011;3464;42.728;23.296;2022-09-17T07:10:37;17.20;;;5.40;;
6850;SDS011;3464;42.728;23.296;2022-09-17T07:13:03;19.60;;;5.33;;
6850;SDS011;3464;42.728;23.296;2022-09-17T07:15:31;17.47;;;4.43;;
6850;SDS011;3464;42.728;23.296;2022-09-17T07:17:57;19.00;;;4.90;;
6850;SDS011;3464;42.728;23.296;2022-09-17T07:20:24;19.43;;;5.90;;
6850;SDS011;3464;42.728;23.296;2022-09-17T07:22:54;20.00;;;5.73;;
6850;SDS011;3464;42.728;23.296;2022-09-17T07:25:20;15.60;;;4.80;;
6850;SDS011;3464;42.728;23.296;2022-09-17T07:27:46;23.40;;;5.47;;
6850;SDS011;3464;42.728;23.296;2022-09-17T07:30:13;19.17;;;5.00;;
6850;SDS011;3464;42.728;23.296;2022-09-17T07:32:39;21.80;;;5.33;;
6850;SDS011;3464;42.728;23.296;2022-09-17T07:35:06;20.87;;;5.73;;
6850;SDS011;3464;42.728;23.296;2022-09-17T07:37:33;16.30;;;4.77;;
6850;SDS011;3464;42.728;23.296;2022-09-17T07:40:00;15.23;;;3.43;;
6850;SDS011;3464;42.728;23.296;2022-09-17T07:42:27;15.17;;;3.90;;
6850;SDS011;3464;42.728;23.296;2022-09-17T07:44:54;14.67;;;3.47;;
6850;SDS011;3464;42.728;23.296;2022-09-17T07:47:21;14.30;;;3.23;;
6850;SDS011;3464;42.728;23.296;2022-09-17T07:49:47;14.83;;;3.47;;
6850;SDS011;3464;42.728;23.296;2022-09-17T07:52:18;14.30;;;3.47;;
6850;SDS011;3464;42.728;23.296;2022-09-17T07:54:50;13.50;;;3.13;;
6850;SDS011;3464;42.728;23.296;2022-09-17T08:00:43;11.77;;;2.50;;
6850;SDS011;3464;42.728;23.296;2022-09-17T08:03:11;14.50;;;3.40;;
6850;SDS011;3464;42.728;23.296;2022-09-17T08:05:38;11.83;;;2.53;;
6850;SDS011;3464;42.728;23.296;2022-09-17T08:08:05;11.60;;;2.27;;
6850;SDS011;3464;42.728;23.296;2022-09-17T08:10:31;11.03;;;2.57;;
6850;SDS011;3464;42.728;23.296;2022-09-17T08:12:58;12.57;;;2.50;;
6850;SDS011;3464;42.728;23.296;2022-09-17T08:15:25;10.93;;;2.07;;
6850;SDS011;3464;42.728;23.296;2022-09-17T08:17:51;10.77;;;2.57;;
6850;SDS011;3464;42.728;23.296;2022-09-17T08:20:18;15.73;;;2.10;;
6850;SDS011;3464;42.728;23.296;2022-09-17T08:22:45;9.60;;;1.90;;
6850;SDS011;3464;42.728;23.296;2022-09-17T08:25:12;10.57;;;2.30;;
6850;SDS011;3464;42.728;23.296;2022-09-17T08:27:38;9.37;;;1.83;;
6850;SDS011;3464;42.728;23.296;2022-09-17T08:30:05;10.97;;;2.13;;
6850;SDS011;3464;42.728;23.296;2022-09-17T08:32:32;12.67;;;2.00;;
6850;SDS011;3464;42.728;23.296;2022-09-17T08:34:59;12.67;;;2.83;;
6850;SDS011;3464;42.728;23.296;2022-09-17T08:37:27;12.77;;;3.17;;
6850;SDS011;3464;42.728;23.296;2022-09-17T08:39:54;10.63;;;2.50;;
6850;SDS011;3464;42.728;23.296;2022-09-17T08:42:23;8.80;;;1.83;;
6850;SDS011;3464;42.728;23.296;2022-09-17T08:45:03;12.17;;;2.53;;
6850;SDS011;3464;42.728;23.296;2022-09-17T08:47:32;9.80;;;1.80;;
6850;SDS011;3464;42.728;23.296;2022-09-17T08:50:05;11.00;;;1.90;;
6850;SDS011;3464;42.728;23.296;2022-09-17T08:52:38;12.30;;;2.43;;
6850;SDS011;3464;42.728;23.296;2022-09-17T08:55:14;16.33;;;2.60;;
6850;SDS011;3464;42.728;23.296;2022-09-17T08:58:00;9.97;;;2.23;;
6850;SDS011;3464;42.728;23.296;2022-09-17T09:00:32;11.03;;;2.07;;
6850;SDS011;3464;42.728;23.296;2022-09-17T09:03:03;13.30;;;2.17;;
6850;SDS011;3464;42.728;23.296;2022-09-17T09:05:43;11.83;;;2.20;;
6850;SDS011;3464;42.728;23.296;2022-09-17T09:08:12;9.80;;;2.00;;
6850;SDS011;3464;42.728;23.296;2022-09-17T09:13:14;10.10;;;2.30;;
6850;SDS011;3464;42.728;23.296;2022-09-17T09:15:43;9.47;;;2.20;;
6850;SDS011;3464;42.728;23.296;2022-09-17T09:18:12;9.73;;;2.33;;
6850;SDS011;3464;42.728;23.296;2022-09-17T09:20:44;10.37;;;1.90;;
6850;SDS011;3464;42.728;23.296;2022-09-17T09:23:13;11.67;;;2.00;;
6850;SDS011;3464;42.728;23.296;2022-09-17T09:25:38;11.17;;;2.37;;
6850;SDS011;3464;42.728;23.296;2022-09-17T09:28:09;11.17;;;2.10;;
6850;SDS011;3464;42.728;23.296;2022-09-17T09:30:37;11.57;;;2.50;;
6850;SDS011;3464;42.728;23.296;2022-09-17T09:33:06;12.10;;;2.40;;
6850;SDS011;3464;42.728;23.296;2022-09-17T09:35:30;12.47;;;2.60;;
6850;SDS011;3464;42.728;23.296;2022-09-17T09:37:58;13.60;;;2.90;;
6850;SDS011;3464;42.728;23.296;2022-09-17T09:40:30;14.03;;;2.70;;
6850;SDS011;3464;42.728;23.296;2022-09-17T09:42:59;10.83;;;2.73;;
6850;SDS011;3464;42.728;23.296;2022-09-17T09:45:30;10.93;;;2.60;;
6850;SDS011;3464;42.728;23.296;2022-09-17T09:48:32;10.83;;;2.83;;
6850;SDS011;3464;42.728;23.296;2022-09-17T09:51:03;11.30;;;2.60;;
6850;SDS011;3464;42.728;23.296;2022-09-17T09:53:33;11.20;;;3.03;;
6850;SDS011;3464;42.728;23.296;2022-09-17T09:56:34;11.23;;;2.40;;
6850;SDS011;3464;42.728;23.296;2022-09-17T09:58:51;12.43;;;2.90;;
6850;SDS011;3464;42.728;23.296;2022-09-17T10:01:21;15.93;;;2.70;;
6850;SDS011;3464;42.728;23.296;2022-09-17T10:03:48;13.07;;;2.80;;
6850;SDS011;3464;42.728;23.296;2022-09-17T10:06:16;9.90;;;2.70;;
6850;SDS011;3464;42.728;23.296;2022-09-17T10:11:39;11.70;;;2.63;;
6850;SDS011;3464;42.728;23.296;2022-09-17T10:16:40;15.20;;;4.20;;
6850;SDS011;3464;42.728;23.296;2022-09-17T10:21:43;14.83;;;4.70;;
6850;SDS011;3464;42.728;23.296;2022-09-17T10:24:27;14.23;;;4.07;;
6850;SDS011;3464;42.728;23.296;2022-09-17T10:29:25;16.10;;;3.87;;
6850;SDS011;3464;42.728;23.296;2022-09-17T10:31:53;14.27;;;4.00;;
6850;SDS011;3464;42.728;23.296;2022-09-17T10:34:24;11.63;;;3.67;;
6850;SDS011;3464;42.728;23.296;2022-09-17T10:36:51;12.20;;;3.77;;
6850;SDS011;3464;42.728;23.296;2022-09-17T10:39:26;10.37;;;2.80;;
6850;SDS011;3464;42.728;23.296;2022-09-17T10:41:57;11.43;;;3.73;;
6850;SDS011;3464;42.728;23.296;2022-09-17T10:44:26;12.03;;;3.27;;
6850;SDS011;3464;42.728;23.296;2022-09-17T10:46:52;15.13;;;3.53;;
6850;SDS011;3464;42.728;23.296;2022-09-17T10:52:24;21.83;;;4.80;;
6850;SDS011;3464;42.728;23.296;2022-09-17T10:55:12;12.30;;;3.50;;
6850;SDS011;3464;42.728;23.296;2022-09-17T10:57:52;15.40;;;3.00;;
6850;SDS011;3464;42.728;23.296;2022-09-17T11:00:18;12.13;;;3.30;;
6850;SDS011;3464;42.728;23.296;2022-09-17T11:02:57;11.43;;;2.63;;
6850;SDS011;3464;42.728;23.296;2022-09-17T11:05:33;11.40;;;2.67;;
6850;SDS011;3464;42.728;23.296;2022-09-17T11:08:19;12.30;;;3.10;;
6850;SDS011;3464;42.728;23.296;2022-09-17T11:11:10;12.37;;;2.70;;
6850;SDS011;3464;42.728;23.296;2022-09-17T11:13:41;17.13;;;2.93;;
6850;SDS011;3464;42.728;23.296;2022-09-17T11:18:57;14.30;;;2.77;;
6850;SDS011;3464;42.728;23.296;2022-09-17T11:21:31;14.60;;;2.50;;
6850;SDS011;3464;42.728;23.296;2022-09-17T11:26:55;12.33;;;2.70;;
6850;SDS011;3464;42.728;23.296;2022-09-17T11:29:57;14.57;;;2.93;;
6850;SDS011;3464;42.728;23.296;2022-09-17T11:32:18;9.80;;;2.40;;
6850;SDS011;3464;42.728;23.296;2022-09-17T11:34:59;34.37;;;7.90;;
6850;SDS011;3464;42.728;23.296;2022-09-17T11:37:26;11.53;;;2.97;;
6850;SDS011;3464;42.728;23.296;2022-09-17T11:40:25;15.20;;;2.87;;
6850;SDS011;3464;42.728;23.296;2022-09-17T11:42:57;13.10;;;2.77;;
6850;SDS011;3464;42.728;23.296;2022-09-17T11:45:40;16.33;;;2.63;;
6850;SDS011;3464;42.728;23.296;2022-09-17T11:48:11;13.03;;;2.90;;
6850;SDS011;3464;42.728;23.296;2022-09-17T11:50:39;10.10;;;2.57;;
6850;SDS011;3464;42.728;23.296;2022-09-17T11:53:13;11.27;;;2.60;;
6850;SDS011;3464;42.728;23.296;2022-09-17T11:55:46;12.47;;;2.60;;
6850;SDS011;3464;42.728;23.296;2022-09-17T11:58:16;11.13;;;2.53;;
6850;SDS011;3464;42.728;23.296;2022-09-17T12:00:44;10.93;;;2.40;;
6850;SDS011;3464;42.728;23.296;2022-09-17T12:03:22;12.10;;;2.60;;
6850;SDS011;3464;42.728;23.296;2022-09-17T12:05:51;9.97;;;2.50;;
6850;SDS011;3464;42.728;23.296;2022-09-17T12:08:20;10.40;;;2.30;;
6850;SDS011;3464;42.728;23.296;2022-09-17T12:10:51;9.63;;;2.00;;
6850;SDS011;3464;42.728;23.296;2022-09-17T12:19:01;8.73;;;1.80;;
6850;SDS011;3464;42.728;23.296;2022-09-17T12:21:30;10.30;;;2.10;;
6850;SDS011;3464;42.728;23.296;2022-09-17T12:23:58;10.33;;;2.03;;
6850;SDS011;3464;42.728;23.296;2022-09-17T12:26:44;8.00;;;2.03;;
6850;SDS011;3464;42.728;23.296;2022-09-17T12:29:20;9.53;;;2.13;;
6850;SDS011;3464;42.728;23.296;2022-09-17T12:31:53;8.60;;;1.90;;
6850;SDS011;3464;42.728;23.296;2022-09-17T12:37:10;10.40;;;2.27;;
6850;SDS011;3464;42.728;23.296;2022-09-17T12:45:13;9.53;;;1.97;;
6850;SDS011;3464;42.728;23.296;2022-09-17T12:47:55;8.80;;;1.93;;
6850;SDS011;3464;42.728;23.296;2022-09-17T12:50:37;9.87;;;1.50;;
6850;SDS011;3464;42.728;23.296;2022-09-17T12:53:22;8.63;;;1.80;;
6850;SDS011;3464;42.728;23.296;2022-09-17T12:55:49;8.73;;;1.70;;
6850;SDS011;3464;42.728;23.296;2022-09-17T12:58:27;14.83;;;1.60;;
6850;SDS011;3464;42.728;23.296;2022-09-17T13:01:12;9.73;;;1.60;;
6850;SDS011;3464;42.728;23.296;2022-09-17T13:03:49;9.97;;;1.90;;
6850;SDS011;3464;42.728;23.296;2022-09-17T13:06:21;9.80;;;2.73;;
6850;SDS011;3464;42.728;23.296;2022-09-17T13:09:23;8.80;;;2.40;;
6850;SDS011;3464;42.728;23.296;2022-09-17T13:12:06;9.83;;;1.90;;
6850;SDS011;3464;42.728;23.296;2022-09-17T13:17:48;8.50;;;2.23;;
6850;SDS011;3464;42.728;23.296;2022-09-17T13:20:26;13.33;;;1.87;;
6850;SDS011;3464;42.728;23.296;2022-09-17T13:22:56;11.10;;;1.80;;
6850;SDS011;3464;42.728;23.296;2022-09-17T13:25:23;9.20;;;2.30;;
6850;SDS011;3464;42.728;23.296;2022-09-17T13:28:02;13.53;;;1.93;;
6850;SDS011;3464;42.728;23.296;2022-09-17T13:30:17;9.73;;;2.70;;
6850;SDS011;3464;42.728;23.296;2022-09-17T13:32:44;10.50;;;2.30;;
6850;SDS011;3464;42.728;23.296;2022-09-17T13:38:07;10.73;;;3.40;;
6850;SDS011;3464;42.728;23.296;2022-09-17T13:40:34;13.77;;;4.17;;
6850;SDS011;3464;42.728;23.296;2022-09-17T13:43:10;11.80;;;4.07;;
6850;SDS011;3464;42.728;23.296;2022-09-17T13:46:13;15.63;;;3.53;;
6850;SDS011;3464;42.728;23.296;2022-09-17T13:48:33;13.87;;;4.00;;
6850;SDS011;3464;42.728;23.296;2022-09-17T13:53:51;13.67;;;3.60;;
6850;SDS011;3464;42.728;23.296;2022-09-17T13:56:27;14.30;;;5.00;;
6850;SDS011;3464;42.728;23.296;2022-09-17T13:58:54;16.93;;;4.40;;
6850;SDS011;3464;42.728;23.296;2022-09-17T14:04:28;14.07;;;4.27;;
6850;SDS011;3464;42.728;23.296;2022-09-17T14:06:46;14.30;;;3.70;;
6850;SDS011;3464;42.728;23.296;2022-09-17T14:11:51;12.00;;;3.97;;
6850;SDS011;3464;42.728;23.296;2022-09-17T14:16:58;15.90;;;5.63;;
6850;SDS011;3464;42.728;23.296;2022-09-17T14:22:11;14.10;;;3.20;;
6850;SDS011;3464;42.728;23.296;2022-09-17T14:24:44;11.77;;;3.97;;
6850;SDS011;3464;42.728;23.296;2022-09-17T14:27:29;13.40;;;3.83;;
6850;SDS011;3464;42.728;23.296;2022-09-17T14:30:32;13.47;;;4.23;;
6850;SDS011;3464;42.728;23.296;2022-09-17T14:33:13;11.50;;;3.90;;
6850;SDS011;3464;42.728;23.296;2022-09-17T14:35:41;11.37;;;4.07;;
6850;SDS011;3464;42.728;23.296;2022-09-17T14:38:22;12.30;;;4.70;;
6850;SDS011;3464;42.728;23.296;2022-09-17T14:41:22;13.07;;;3.23;;
6850;SDS011;3464;42.728;23.296;2022-09-17T14:44:06;10.67;;;3.63;;
6850;SDS011;3464;42.728;23.296;2022-09-17T14:46:20;14.73;;;4.13;;
6850;SDS011;3464;42.728;23.296;2022-09-17T14:48:46;10.97;;;2.93;;
6850;SDS011;3464;42.728;23.296;2022-09-17T14:51:23;11.53;;;3.00;;
6850;SDS011;3464;42.728;23.296;2022-09-17T14:56:32;11.03;;;2.70;;
6850;SDS011;3464;42.728;23.296;2022-09-17T14:59:01;20.63;;;3.60;;
6850;SDS011;3464;42.728;23.296;2022-09-17T15:01:36;9.40;;;2.67;;
6850;SDS011;3464;42.728;23.296;2022-09-17T15:04:25;12.33;;;3.67;;
6850;SDS011;3464;42.728;23.296;2022-09-17T15:06:52;11.00;;;3.23;;
6850;SDS011;3464;42.728;23.296;2022-09-17T15:09:23;11.10;;;2.40;;
6850;SDS011;3464;42.728;23.296;2022-09-17T15:11:48;11.57;;;2.70;;
6850;SDS011;3464;42.728;23.296;2022-09-17T15:14:16;9.43;;;2.33;;
6850;SDS011;3464;42.728;23.296;2022-09-17T15:16:45;10.07;;;2.80;;
6850;SDS011;3464;42.728;23.296;2022-09-17T15:19:14;9.17;;;2.47;;
6850;SDS011;3464;42.728;23.296;2022-09-17T15:22:04;13.63;;;2.50;;
6850;SDS011;3464;42.728;23.296;2022-09-17T15:27:30;10.80;;;2.63;;
6850;SDS011;3464;42.728;23.296;2022-09-17T15:30:01;11.83;;;2.80;;
6850;SDS011;3464;42.728;23.296;2022-09-17T15:32:27;10.93;;;3.60;;
6850;SDS011;3464;42.728;23.296;2022-09-17T15:37:33;10.80;;;3.80;;
6850;SDS011;3464;42.728;23.296;2022-09-17T15:40:00;9.23;;;2.50;;
6850;SDS011;3464;42.728;23.296;2022-09-17T15:42:28;14.07;;;4.30;;
6850;SDS011;3464;42.728;23.296;2022-09-17T15:45:26;9.60;;;2.30;;
6850;SDS011;3464;42.728;23.296;2022-09-17T15:47:47;13.33;;;3.50;;
6850;SDS011;3464;42.728;23.296;2022-09-17T15:50:29;11.47;;;3.27;;
6850;SDS011;3464;42.728;23.296;2022-09-17T15:53:10;12.23;;;2.90;;
6850;SDS011;3464;42.728;23.296;2022-09-17T15:55:39;9.23;;;2.20;;
6850;SDS011;3464;42.728;23.296;2022-09-17T16:00:44;10.20;;;2.13;;
6850;SDS011;3464;42.728;23.296;2022-09-17T16:03:41;9.33;;;2.50;;
6850;SDS011;3464;42.728;23.296;2022-09-17T16:08:42;11.10;;;2.70;;
6850;SDS011;3464;42.728;23.296;2022-09-17T16:11:08;11.57;;;2.50;;
6850;SDS011;3464;42.728;23.296;2022-09-17T16:13:35;9.10;;;2.43;;
6850;SDS011;3464;42.728;23.296;2022-09-17T16:16:01;9.80;;;2.00;;
6850;SDS011;3464;42.728;23.296;2022-09-17T16:18:28;12.33;;;1.90;;
6850;SDS011;3464;42.728;23.296;2022-09-17T16:20:54;10.97;;;2.90;;
6850;SDS011;3464;42.728;23.296;2022-09-17T16:23:21;14.70;;;2.77;;
6850;SDS011;3464;42.728;23.296;2022-09-17T16:25:48;8.70;;;1.73;;
6850;SDS011;3464;42.728;23.296;2022-09-17T16:28:17;9.30;;;1.70;;
6850;SDS011;3464;42.728;23.296;2022-09-17T16:30:43;7.50;;;1.60;;
6850;SDS011;3464;42.728;23.296;2022-09-17T16:33:09;11.33;;;1.83;;
6850;SDS011;3464;42.728;23.296;2022-09-17T16:35:35;11.20;;;2.17;;